Time;durP1;ratioP1;P1;durP2;ratioP2;P2;SDS_P1;SDS_P2;PMS_P1;PMS_P2;Temp;Humidity;BMP_temperature;BMP_pressure;BME280_temperature;BME280_humidity;BME280_pressure;Samples;Min_cycle;Max_cycle;Signal;HPM_P1;HPM_P2
2021/01/07 00:01:48;;;;;;;2.50;0.90;;;4.40;48.60;;;;;;5027693;28;80558;-72
2021/01/07 00:04:14;;;;;;;3.55;1.15;;;4.40;48.50;;;;;;5025914;28;80771;-68
2021/01/07 00:06:40;;;;;;;2.03;0.88;;;4.30;48.50;;;;;;5027266;28;80676;-73
2021/01/07 00:09:06;;;;;;;1.60;0.77;;;4.30;48.60;;;;;;5025573;28;80420;-75
2021/01/07 00:11:32;;;;;;;3.00;0.90;;;4.30;48.50;;;;;;5027261;28;80978;-73
2021/01/07 00:13:57;;;;;;;3.05;1.60;;;4.20;48.60;;;;;;5026760;28;80100;-73
2021/01/07 00:16:23;;;;;;;2.38;0.90;;;4.20;48.60;;;;;;5025190;28;81091;-74
2021/01/07 00:18:49;;;;;;;1.85;0.70;;;4.20;48.80;;;;;;5027171;28;79708;-73
2021/01/07 00:21:15;;;;;;;3.20;0.90;;;4.10;48.90;;;;;;5025130;28;83706;-76
2021/01/07 00:23:40;;;;;;;2.05;0.85;;;4.10;48.90;;;;;;5026499;28;80484;-76
2021/01/07 00:26:07;;;;;;;2.83;0.80;;;4.10;49.00;;;;;;5024964;28;82647;-70
2021/01/07 00:28:33;;;;;;;1.77;0.85;;;4.10;49.00;;;;;;5026736;28;80279;-68
2021/01/07 00:30:59;;;;;;;3.13;1.15;;;4.00;49.10;;;;;;5026789;28;80626;-70
2021/01/07 00:33:24;;;;;;;2.30;1.00;;;4.10;49.00;;;;;;5027023;28;80695;-70
2021/01/07 00:35:51;;;;;;;1.75;0.93;;;4.10;49.00;;;;;;5025018;28;80693;-70
2021/01/07 00:38:17;;;;;;;2.25;0.70;;;4.10;49.00;;;;;;5026744;28;80329;-70
2021/01/07 00:40:42;;;;;;;3.38;0.95;;;4.10;49.00;;;;;;5024844;28;84370;-73
2021/01/07 00:43:08;;;;;;;3.25;0.90;;;4.10;49.00;;;;;;5024927;28;82895;-74
2021/01/07 00:45:34;;;;;;;2.67;1.20;;;4.20;48.90;;;;;;5024906;28;81367;-81
2021/01/07 00:48:00;;;;;;;3.65;1.00;;;4.10;48.90;;;;;;5025056;28;79733;-79
2021/01/07 00:50:26;;;;;;;3.63;0.90;;;4.10;49.00;;;;;;5024344;28;82671;-74
2021/01/07 00:52:53;;;;;;;1.77;0.68;;;4.10;49.10;;;;;;5026586;28;80705;-83
2021/01/07 00:55:18;;;;;;;2.28;0.90;;;4.10;49.00;;;;;;5027081;28;80902;-79
2021/01/07 00:57:44;;;;;;;2.47;0.95;;;4.10;49.00;;;;;;5029861;28;80230;-82
2021/01/07 01:00:13;;;;;;;1.77;0.80;;;4.10;49.00;;;;;;5028460;28;80070;-75
2021/01/07 01:02:39;;;;;;;2.00;0.80;;;4.10;49.10;;;;;;5029694;28;80389;-70
2021/01/07 01:05:07;;;;;;;1.48;0.80;;;4.10;49.10;;;;;;5027807;28;79901;-69
2021/01/07 01:07:33;;;;;;;2.03;0.80;;;4.20;49.10;;;;;;5029449;28;80345;-69
2021/01/07 01:09:59;;;;;;;1.55;0.90;;;4.10;49.10;;;;;;5029565;28;80667;-73
2021/01/07 01:12:25;;;;;;;1.67;0.65;;;4.10;49.10;;;;;;5027737;28;80381;-71
2021/01/07 01:14:50;;;;;;;2.47;1.02;;;4.10;49.20;;;;;;5027953;28;81850;-72
2021/01/07 01:17:16;;;;;;;2.92;0.90;;;4.00;49.30;;;;;;5027741;28;79734;-69
2021/01/07 01:19:42;;;;;;;2.75;0.68;;;4.00;49.30;;;;;;5027544;28;81099;-71
2021/01/07 01:22:09;;;;;;;2.25;0.80;;;4.00;49.40;;;;;;5027698;28;80730;-73
2021/01/07 01:24:35;;;;;;;1.88;0.90;;;4.00;49.40;;;;;;5027664;28;82710;-73
2021/01/07 01:27:02;;;;;;;1.75;0.80;;;3.90;49.60;;;;;;5027203;28;81387;-70
2021/01/07 01:29:28;;;;;;;3.40;0.90;;;3.90;49.60;;;;;;5027547;28;81215;-70
2021/01/07 01:31:54;;;;;;;1.20;0.70;;;3.90;49.60;;;;;;5029411;28;80474;-72
2021/01/07 01:34:22;;;;;;;2.78;1.00;;;3.90;49.80;;;;;;5027402;28;80617;-72
2021/01/07 01:36:48;;;;;;;3.63;1.42;;;3.90;49.70;;;;;;5027712;28;80901;-69
2021/01/07 01:39:18;;;;;;;3.45;0.80;;;3.90;49.70;;;;;;5027682;28;80038;-68
2021/01/07 01:41:48;;;;;;;4.32;0.90;;;3.90;49.70;;;;;;5027459;28;80062;-69
2021/01/07 01:44:15;;;;;;;1.38;0.75;;;3.90;49.80;;;;;;5027559;28;81183;-72
2021/01/07 01:46:41;;;;;;;3.17;0.90;;;3.90;49.70;;;;;;5027249;28;80827;-68
2021/01/07 01:49:09;;;;;;;1.98;0.82;;;3.90;49.80;;;;;;5027614;28;82701;-68
2021/01/07 01:51:36;;;;;;;3.22;1.00;;;4.00;49.80;;;;;;5027215;28;80614;-71
2021/01/07 01:54:02;;;;;;;1.80;0.80;;;4.00;49.80;;;;;;5028975;28;80698;-71
2021/01/07 01:56:28;;;;;;;1.92;0.73;;;4.00;50.00;;;;;;5028703;28;80344;-70
2021/01/07 01:58:55;;;;;;;2.10;0.75;;;4.10;49.90;;;;;;5026511;28;82625;-79
2021/01/07 02:01:21;;;;;;;2.17;1.02;;;4.10;49.80;;;;;;5026898;28;82960;-68
2021/01/07 02:03:48;;;;;;;2.60;1.05;;;4.10;49.80;;;;;;5026806;28;80582;-81
2021/01/07 02:06:16;;;;;;;2.58;0.90;;;4.10;49.80;;;;;;5028550;28;80841;-81
2021/01/07 02:08:46;;;;;;;3.53;1.00;;;4.10;49.80;;;;;;5027223;28;81837;-75
2021/01/07 02:11:16;;;;;;;1.75;0.90;;;4.10;49.90;;;;;;5026761;28;80710;-70
2021/01/07 02:13:46;;;;;;;1.95;0.68;;;4.10;50.00;;;;;;5029189;28;79761;-69
2021/01/07 02:16:22;;;;;;;2.60;1.25;;;4.10;50.00;;;;;;5028102;28;80017;-68
2021/01/07 02:18:48;;;;;;;3.13;0.88;;;4.10;50.00;;;;;;5028313;28;81103;-71
2021/01/07 02:21:14;;;;;;;1.98;0.95;;;4.00;50.10;;;;;;5028567;28;80184;-77
2021/01/07 02:23:51;;;;;;;2.17;0.80;;;4.00;50.20;;;;;;5028186;28;81550;-74
2021/01/07 02:26:18;;;;;;;1.70;0.80;;;4.10;50.00;;;;;;5028037;28;80877;-74
2021/01/07 02:28:45;;;;;;;1.80;0.90;;;4.10;50.00;;;;;;5028226;28;82387;-78
2021/01/07 02:31:11;;;;;;;3.13;1.05;;;4.10;50.10;;;;;;5029969;28;80385;-75
2021/01/07 02:33:36;;;;;;;2.80;1.30;;;4.00;50.20;;;;;;5027180;28;79699;-79
2021/01/07 02:36:02;;;;;;;2.08;0.90;;;4.10;50.20;;;;;;5028568;28;80688;-76
2021/01/07 02:38:28;;;;;;;2.47;1.13;;;4.00;50.10;;;;;;5028243;28;79887;-74
2021/01/07 02:40:54;;;;;;;2.13;0.60;;;4.00;50.10;;;;;;5026634;28;80477;-75
2021/01/07 02:43:20;;;;;;;2.58;1.08;;;4.10;50.20;;;;;;5028328;28;80446;-76
2021/01/07 02:45:45;;;;;;;2.33;1.00;;;4.10;50.20;;;;;;5026437;28;80750;-69
2021/01/07 02:48:11;;;;;;;4.13;0.98;;;4.10;50.20;;;;;;5026546;28;80996;-68
2021/01/07 02:50:37;;;;;;;2.50;1.10;;;4.10;50.30;;;;;;5026364;28;81426;-70
2021/01/07 02:53:03;;;;;;;2.15;0.93;;;4.10;50.30;;;;;;5026514;28;82713;-69
2021/01/07 02:55:28;;;;;;;3.15;0.90;;;4.00;50.30;;;;;;5028091;28;80128;-69
2021/01/07 02:57:54;;;;;;;3.90;0.90;;;4.00;50.30;;;;;;5027967;28;80557;-80
2021/01/07 03:00:20;;;;;;;1.77;0.85;;;4.00;50.40;;;;;;5026408;28;80381;-67
2021/01/07 03:02:46;;;;;;;2.47;0.93;;;4.00;50.50;;;;;;5026183;28;80801;-67
2021/01/07 03:05:12;;;;;;;2.30;0.75;;;4.00;50.60;;;;;;5027542;28;80348;-68
2021/01/07 03:07:38;;;;;;;2.08;0.88;;;4.00;50.60;;;;;;5027562;28;81048;-66
2021/01/07 03:10:09;;;;;;;2.40;0.77;;;3.90;50.80;;;;;;5026143;28;80421;-71
2021/01/07 03:12:34;;;;;;;3.45;0.90;;;4.00;50.70;;;;;;5025352;28;82856;-69
2021/01/07 03:15:00;;;;;;;2.42;0.90;;;4.00;50.60;;;;;;5027549;28;80056;-67
2021/01/07 03:17:26;;;;;;;2.13;0.90;;;4.00;50.90;;;;;;5025178;28;81251;-74
2021/01/07 03:19:52;;;;;;;2.08;0.88;;;4.00;50.70;;;;;;5026993;28;80636;-70
2021/01/07 03:22:18;;;;;;;1.98;0.80;;;4.00;50.70;;;;;;5027542;28;80963;-79
2021/01/07 03:24:43;;;;;;;2.45;0.88;;;4.00;50.70;;;;;;5025749;28;82215;-76
2021/01/07 03:27:09;;;;;;;3.22;0.80;;;3.90;50.80;;;;;;5026413;28;83449;-73
2021/01/07 03:29:35;;;;;;;6.00;0.93;;;4.00;50.80;;;;;;5027539;28;79751;-79
2021/01/07 03:32:02;;;;;;;1.83;0.70;;;4.00;50.80;;;;;;5025734;28;81093;-76
2021/01/07 03:34:28;;;;;;;2.67;1.00;;;4.00;50.90;;;;;;5025863;28;79990;-77
2021/01/07 03:36:54;;;;;;;2.00;1.00;;;3.90;50.90;;;;;;5027452;28;80368;-73
2021/01/07 03:39:20;;;;;;;2.33;1.02;;;4.00;50.80;;;;;;5027744;28;79816;-74
2021/01/07 03:41:46;;;;;;;2.28;0.90;;;4.00;50.90;;;;;;5027223;28;80546;-77
2021/01/07 03:44:12;;;;;;;1.90;0.80;;;4.00;50.90;;;;;;5025830;28;80487;-79
2021/01/07 03:46:38;;;;;;;1.90;0.80;;;4.00;50.80;;;;;;5027428;28;80600;-71
2021/01/07 03:49:05;;;;;;;2.33;1.13;;;4.00;50.80;;;;;;5025612;28;80715;-76
2021/01/07 03:51:31;;;;;;;2.42;0.80;;;4.00;50.90;;;;;;5025776;28;79865;-73
2021/01/07 03:53:57;;;;;;;2.65;0.80;;;4.00;50.80;;;;;;5025500;28;80622;-66
2021/01/07 03:56:23;;;;;;;2.53;1.10;;;4.10;50.70;;;;;;5027289;28;79956;-68
2021/01/07 03:58:49;;;;;;;2.55;0.82;;;4.00;50.80;;;;;;5026926;28;80320;-67
2021/01/07 04:01:16;;;;;;;2.38;1.05;;;4.10;50.80;;;;;;5027133;28;80707;-67
2021/01/07 04:03:41;;;;;;;2.53;1.35;;;4.10;50.60;;;;;;5025124;28;81292;-67
2021/01/07 04:06:07;;;;;;;2.22;0.77;;;4.10;50.60;;;;;;5025526;28;80747;-66
2021/01/07 04:08:33;;;;;;;2.50;0.80;;;4.20;50.50;;;;;;5025675;28;82927;-68
2021/01/07 04:10:59;;;;;;;2.28;1.08;;;4.30;50.50;;;;;;5024567;28;82512;-68
2021/01/07 04:13:25;;;;;;;2.63;1.17;;;4.30;50.30;;;;;;5024760;28;80441;-68
2021/01/07 04:15:51;;;;;;;2.13;0.90;;;4.40;50.20;;;;;;5027261;28;79924;-71
2021/01/07 04:18:17;;;;;;;2.38;1.10;;;4.40;50.10;;;;;;5024844;28;82125;-66
2021/01/07 04:20:42;;;;;;;2.53;1.13;;;4.40;50.00;;;;;;5026715;28;80817;-74
2021/01/07 04:23:08;;;;;;;1.83;0.77;;;4.40;50.00;;;;;;5026337;28;79997;-69
2021/01/07 04:25:34;;;;;;;1.85;0.73;;;4.40;49.90;;;;;;5026751;28;80737;-67
2021/01/07 04:28:00;;;;;;;3.65;0.80;;;4.40;49.90;;;;;;5025220;28;80565;-67
2021/01/07 04:30:26;;;;;;;1.98;1.00;;;4.40;50.00;;;;;;5030575;28;80530;-69
2021/01/07 04:32:51;;;;;;;3.40;1.00;;;4.40;50.00;;;;;;5028598;28;80415;-69
2021/01/07 04:35:17;;;;;;;1.60;0.60;;;4.40;50.00;;;;;;5030021;28;79929;-70
2021/01/07 04:37:43;;;;;;;2.67;1.00;;;4.40;50.00;;;;;;5028675;28;80901;-74
2021/01/07 04:40:13;;;;;;;2.80;1.25;;;4.40;49.90;;;;;;5027979;28;82491;-72
2021/01/07 04:42:38;;;;;;;1.65;0.85;;;4.40;49.80;;;;;;5028895;28;80562;-70
2021/01/07 04:45:05;;;;;;;2.47;1.02;;;4.50;49.70;;;;;;5028203;28;79899;-67
2021/01/07 04:47:31;;;;;;;1.60;0.75;;;4.40;49.60;;;;;;5029795;28;80767;-69
2021/01/07 04:49:57;;;;;;;2.97;1.10;;;4.40;49.60;;;;;;5028403;28;80898;-68
2021/01/07 04:52:23;;;;;;;4.05;1.33;;;4.40;49.70;;;;;;5028030;28;80818;-68
2021/01/07 04:54:52;;;;;;;2.78;1.25;;;4.40;49.70;;;;;;5028461;28;81652;-77
2021/01/07 04:57:20;;;;;;;2.50;0.90;;;4.40;49.60;;;;;;5028346;28;80433;-71
2021/01/07 04:59:46;;;;;;;2.17;1.35;;;4.40;49.60;;;;;;5028929;28;81352;-79
2021/01/07 05:02:14;;;;;;;2.15;0.90;;;4.40;49.60;;;;;;5028394;28;82461;-75
2021/01/07 05:04:51;;;;;;;1.70;0.88;;;4.40;49.50;;;;;;5030600;28;79819;-79
2021/01/07 05:07:18;;;;;;;2.03;0.90;;;4.50;49.60;;;;;;5030075;28;80725;-81
2021/01/07 05:09:44;;;;;;;2.03;0.90;;;4.50;49.60;;;;;;5029599;28;79863;-70
2021/01/07 05:12:11;;;;;;;10.00;0.90;;;4.50;49.50;;;;;;5029302;28;80083;-69
2021/01/07 05:14:45;;;;;;;5.82;1.00;;;4.50;49.50;;;;;;5029421;28;80530;-69
2021/01/07 05:17:15;;;;;;;2.97;0.80;;;4.60;49.40;;;;;;5028396;28;81774;-68
2021/01/07 05:19:41;;;;;;;2.72;0.90;;;4.50;49.40;;;;;;5027827;28;84373;-75
2021/01/07 05:22:07;;;;;;;4.25;1.33;;;4.50;49.60;;;;;;5027352;28;79999;-70
2021/01/07 05:24:33;;;;;;;3.97;1.83;;;4.50;49.50;;;;;;5029607;28;80653;-82
2021/01/07 05:27:15;;;;;;;2.28;0.88;;;4.60;49.50;;;;;;5029420;28;80087;-76
2021/01/07 05:29:41;;;;;;;4.97;1.42;;;4.60;49.60;;;;;;5029372;28;81138;-71
2021/01/07 05:32:09;;;;;;;2.35;1.10;;;4.60;49.50;;;;;;5029335;28;80421;-72
2021/01/07 05:34:50;;;;;;;3.00;1.10;;;4.60;49.60;;;;;;5027279;28;81801;-70
2021/01/07 05:37:20;;;;;;;6.93;1.77;;;4.60;49.70;;;;;;5029238;28;80700;-80
2021/01/07 05:39:50;;;;;;;5.85;1.02;;;4.70;49.50;;;;;;5026970;28;81040;-74
2021/01/07 05:42:16;;;;;;;4.85;1.67;;;4.70;49.50;;;;;;5027649;28;80083;-81
2021/01/07 05:44:47;;;;;;;4.05;1.48;;;4.70;49.40;;;;;;5027571;28;80707;-77
2021/01/07 05:47:29;;;;;;;2.38;1.00;;;4.70;49.40;;;;;;5027711;28;82772;-71
2021/01/07 05:49:56;;;;;;;5.57;2.05;;;4.70;49.50;;;;;;5027461;28;82835;-76
2021/01/07 05:52:27;;;;;;;6.03;1.50;;;4.70;49.50;;;;;;5029237;28;80319;-79
2021/01/07 05:54:54;;;;;;;4.10;1.50;;;4.70;49.40;;;;;;5028685;28;80618;-73
2021/01/07 05:57:22;;;;;;;7.88;4.90;;;4.70;49.40;;;;;;5029386;28;80290;-72
2021/01/07 05:59:48;;;;;;;3.92;1.42;;;4.70;49.40;;;;;;5028850;28;80592;-78
2021/01/07 06:02:18;;;;;;;3.40;1.33;;;4.70;49.40;;;;;;5028922;28;80293;-77
2021/01/07 06:04:47;;;;;;;3.20;1.27;;;4.70;49.50;;;;;;5027161;28;83233;-74
2021/01/07 06:07:16;;;;;;;2.65;1.40;;;4.70;49.50;;;;;;5026646;28;82352;-72
2021/01/07 06:09:46;;;;;;;5.68;1.00;;;4.70;49.50;;;;;;5028888;28;80537;-73
2021/01/07 06:12:13;;;;;;;3.70;1.60;;;4.70;49.50;;;;;;5028198;28;80296;-75
2021/01/07 06:14:46;;;;;;;3.05;1.23;;;4.70;49.50;;;;;;5027140;28;81038;-76
2021/01/07 06:17:13;;;;;;;3.72;1.38;;;4.70;49.70;;;;;;5026879;28;79882;-72
2021/01/07 06:19:41;;;;;;;4.57;1.88;;;4.70;49.60;;;;;;5027017;28;80943;-71
2021/01/07 06:22:09;;;;;;;3.58;1.13;;;4.70;49.60;;;;;;5027274;28;80237;-67
2021/01/07 06:24:37;;;;;;;4.00;1.42;;;4.60;49.80;;;;;;5029216;28;80936;-71
2021/01/07 06:27:29;;;;;;;5.47;1.40;;;4.60;49.90;;;;;;5030237;28;80396;-73
2021/01/07 06:30:00;;;;;;;3.88;1.20;;;4.60;49.90;;;;;;5028943;28;79846;-76
2021/01/07 06:32:29;;;;;;;3.25;1.02;;;4.50;50.00;;;;;;5029614;28;80215;-74
2021/01/07 06:34:57;;;;;;;4.13;1.27;;;4.50;50.10;;;;;;5027419;28;82843;-76
2021/01/07 06:37:37;;;;;;;7.43;1.55;;;4.50;50.10;;;;;;5027373;28;80698;-73
2021/01/07 06:40:06;;;;;;;2.75;1.10;;;4.50;50.30;;;;;;5026968;28;80846;-80
2021/01/07 06:42:43;;;;;;;6.15;1.80;;;4.40;50.40;;;;;;5028875;28;79776;-79
2021/01/07 06:45:11;;;;;;;7.38;1.83;;;4.50;50.40;;;;;;5027176;28;81450;-79
2021/01/07 06:47:38;;;;;;;3.38;1.40;;;4.50;50.40;;;;;;5026570;28;80634;-78
2021/01/07 06:50:05;;;;;;;4.13;1.60;;;4.50;50.40;;;;;;5028107;28;80813;-73
2021/01/07 06:52:41;;;;;;;5.70;2.05;;;4.50;50.40;;;;;;5026755;28;80320;-78
2021/01/07 06:55:12;;;;;;;5.30;2.28;;;4.50;50.40;;;;;;5026301;28;81307;-77
2021/01/07 06:57:48;;;;;;;5.28;2.33;;;4.50;50.40;;;;;;5026129;28;80515;-79
2021/01/07 07:00:18;;;;;;;5.70;2.28;;;4.50;50.50;;;;;;5027940;28;80914;-78
2021/01/07 07:02:58;;;;;;;5.65;1.70;;;4.50;50.50;;;;;;5026708;28;82388;-79
2021/01/07 07:05:29;;;;;;;5.45;1.80;;;4.60;50.50;;;;;;5027910;28;80395;-77
2021/01/07 07:08:10;;;;;;;7.38;2.28;;;4.50;50.40;;;;;;5027682;28;81140;-76
2021/01/07 07:10:39;;;;;;;4.20;1.55;;;4.60;50.40;;;;;;5027743;28;79815;-73
2021/01/07 07:13:19;;;;;;;4.10;1.80;;;4.50;50.40;;;;;;5025821;28;82710;-69
2021/01/07 07:15:50;;;;;;;4.05;1.75;;;4.50;50.50;;;;;;5027674;28;80919;-71
2021/01/07 07:18:31;;;;;;;11.00;2.45;;;4.50;50.60;;;;;;5028791;28;79764;-77
2021/01/07 07:20:57;;;;;;;4.20;1.80;;;4.40;50.70;;;;;;5026588;28;83233;-71
2021/01/07 07:23:24;;;;;;;3.05;1.70;;;4.40;50.80;;;;;;5028769;28;80731;-80
2021/01/07 07:25:52;;;;;;;5.95;1.90;;;4.40;50.70;;;;;;5027105;28;80691;-80
2021/01/07 07:28:19;;;;;;;18.48;2.30;;;4.40;50.80;;;;;;5025902;28;82862;-69
2021/01/07 07:30:47;;;;;;;5.47;2.13;;;4.40;50.80;;;;;;5025920;28;79868;-69
2021/01/07 07:33:31;;;;;;;4.45;1.98;;;4.40;50.90;;;;;;5027073;28;80224;-71
2021/01/07 07:35:57;;;;;;;7.40;2.47;;;4.40;51.00;;;;;;5027754;28;79850;-70
2021/01/07 07:38:31;;;;;;;6.95;2.20;;;4.30;51.00;;;;;;5026228;28;80868;-71
2021/01/07 07:41:05;;;;;;;7.38;2.63;;;4.30;51.00;;;;;;5025819;28;80768;-67
2021/01/07 07:43:33;;;;;;;7.13;2.92;;;4.40;51.10;;;;;;5027392;28;79962;-69
2021/01/07 07:45:59;;;;;;;5.40;2.30;;;4.40;51.00;;;;;;5027374;28;81174;-67
2021/01/07 07:48:27;;;;;;;4.90;2.38;;;4.30;51.10;;;;;;5025788;28;80836;-69
2021/01/07 07:51:13;;;;;;;8.93;3.00;;;4.30;51.20;;;;;;5025541;28;80803;-62
2021/01/07 07:53:40;;;;;;;7.35;2.42;;;4.40;51.10;;;;;;5024749;28;82754;-61
2021/01/07 07:56:22;;;;;;;6.80;2.78;;;4.40;51.30;;;;;;5025374;28;81030;-64
2021/01/07 07:58:56;;;;;;;7.65;2.58;;;4.40;51.00;;;;;;5026853;28;80627;-66
2021/01/07 08:01:22;;;;;;;7.05;2.13;;;4.40;51.00;;;;;;5025257;28;80686;-64
2021/01/07 08:03:48;;;;;;;6.00;1.92;;;4.40;51.10;;;;;;5024446;28;82168;-65
2021/01/07 08:06:20;;;;;;;8.95;2.13;;;4.40;51.10;;;;;;5026751;28;80746;-64
2021/01/07 08:08:46;;;;;;;7.18;1.90;;;4.40;51.00;;;;;;5024954;28;81532;-66
2021/01/07 08:11:19;;;;;;;6.35;2.00;;;4.40;50.90;;;;;;5024693;28;84065;-64
2021/01/07 08:13:47;;;;;;;10.15;2.25;;;4.40;51.00;;;;;;5025162;28;80116;-63
2021/01/07 08:16:20;;;;;;;5.78;1.77;;;4.40;50.80;;;;;;5025360;28;81065;-61
2021/01/07 08:18:46;;;;;;;8.15;2.10;;;4.40;50.80;;;;;;5026440;28;80213;-62
2021/01/07 08:21:12;;;;;;;4.13;2.05;;;4.40;50.80;;;;;;5024925;28;80582;-62
2021/01/07 08:23:38;;;;;;;6.20;1.77;;;4.40;50.80;;;;;;5025005;28;80475;-66
2021/01/07 08:26:05;;;;;;;11.13;3.25;;;4.50;50.70;;;;;;5026650;28;80878;-66
2021/01/07 08:28:44;;;;;;;5.70;2.53;;;4.50;50.60;;;;;;5024825;28;80561;-71
2021/01/07 08:31:14;;;;;;;10.88;2.65;;;4.50;50.50;;;;;;5024665;28;82587;-65
2021/01/07 08:33:40;;;;;;;4.68;1.92;;;4.60;50.50;;;;;;5024876;28;82406;-72
2021/01/07 08:36:11;;;;;;;3.95;1.80;;;4.60;50.50;;;;;;5024825;28;81037;-70
2021/01/07 08:38:38;;;;;;;6.07;2.08;;;4.70;50.40;;;;;;5026794;28;80459;-74
2021/01/07 08:41:27;;;;;;;7.68;1.83;;;4.70;50.20;;;;;;5026305;28;80346;-70
2021/01/07 08:43:58;;;;;;;3.58;1.23;;;4.80;50.20;;;;;;5026461;28;80379;-68
2021/01/07 08:46:38;;;;;;;7.20;1.88;;;4.90;50.30;;;;;;5024577;28;82552;-70
2021/01/07 08:49:10;;;;;;;4.25;2.03;;;4.90;49.90;;;;;;5025883;28;80661;-66
2021/01/07 08:51:43;;;;;;;4.43;2.13;;;4.90;50.00;;;;;;5026253;28;80609;-66
2021/01/07 08:54:11;;;;;;;4.93;1.50;;;4.90;49.80;;;;;;5024119;28;82830;-68
2021/01/07 08:56:39;;;;;;;8.45;2.60;;;5.00;49.70;;;;;;5024124;28;82710;-70
2021/01/07 08:59:29;;;;;;;4.30;1.45;;;5.00;49.60;;;;;;5024303;28;80516;-68
2021/01/07 09:01:57;;;;;;;4.47;1.48;;;5.00;49.60;;;;;;5024495;28;80758;-70
2021/01/07 09:04:33;;;;;;;5.40;2.00;;;5.00;49.50;;;;;;5026084;28;79716;-70
2021/01/07 09:07:16;;;;;;;6.88;1.70;;;5.00;49.50;;;;;;5024032;28;81803;-68
2021/01/07 09:09:46;;;;;;;4.00;1.60;;;5.10;49.30;;;;;;5026337;28;79590;-68
2021/01/07 09:12:15;;;;;;;5.10;1.70;;;5.00;49.20;;;;;;5025447;28;80393;-68
2021/01/07 09:14:53;;;;;;;4.65;1.50;;;5.00;49.30;;;;;;5026240;28;79627;-68
2021/01/07 09:17:20;;;;;;;3.35;1.58;;;5.10;49.20;;;;;;5027824;28;82778;-68
2021/01/07 09:19:47;;;;;;;10.85;2.33;;;5.20;49.10;;;;;;5029660;28;79785;-67
2021/01/07 09:22:17;;;;;;;7.38;2.30;;;5.20;49.00;;;;;;5027453;28;81370;-67
2021/01/07 09:24:43;;;;;;;3.88;1.70;;;5.20;48.90;;;;;;5029489;28;80615;-68
2021/01/07 09:27:11;;;;;;;4.97;1.88;;;5.20;49.10;;;;;;5027195;28;83352;-72
2021/01/07 09:29:39;;;;;;;5.68;2.10;;;5.20;49.00;;;;;;5027882;28;83058;-73
2021/01/07 09:32:06;;;;;;;4.82;1.95;;;5.30;48.90;;;;;;5028880;28;80631;-73
2021/01/07 09:34:33;;;;;;;5.85;2.65;;;5.20;48.90;;;;;;5027580;28;80103;-69
2021/01/07 09:37:13;;;;;;;9.07;1.75;;;5.20;48.90;;;;;;5028954;28;80647;-68
2021/01/07 09:39:40;;;;;;;10.77;2.55;;;5.20;49.10;;;;;;5026943;28;80471;-69
2021/01/07 09:42:06;;;;;;;4.53;1.73;;;5.30;49.00;;;;;;5027374;28;80833;-69
2021/01/07 09:44:33;;;;;;;5.25;2.35;;;5.30;48.90;;;;;;5027266;28;80823;-69
2021/01/07 09:46:59;;;;;;;11.82;2.58;;;5.40;48.80;;;;;;5027117;28;82443;-69
2021/01/07 09:49:26;;;;;;;6.53;1.80;;;5.40;48.80;;;;;;5027423;28;80608;-69
2021/01/07 09:51:53;;;;;;;7.22;2.03;;;5.30;49.00;;;;;;5028920;28;80384;-68
2021/01/07 09:54:20;;;;;;;6.63;1.95;;;5.40;49.00;;;;;;5026881;28;82296;-69
2021/01/07 09:56:46;;;;;;;4.70;2.10;;;5.50;48.80;;;;;;5026522;28;83522;-69
2021/01/07 09:59:12;;;;;;;4.03;1.75;;;5.50;48.80;;;;;;5027080;28;82472;-72
2021/01/07 10:01:38;;;;;;;5.85;2.15;;;5.50;48.70;;;;;;5026758;28;81794;-68
2021/01/07 10:04:04;;;;;;;5.63;2.40;;;5.60;48.80;;;;;;5027202;28;80147;-65
2021/01/07 10:06:30;;;;;;;6.95;2.30;;;5.60;48.80;;;;;;5026752;28;82586;-73
2021/01/07 10:08:56;;;;;;;3.90;1.80;;;5.60;49.00;;;;;;5026897;28;82265;-69
2021/01/07 10:11:22;;;;;;;6.00;1.70;;;5.60;49.10;;;;;;5026847;28;80840;-70
2021/01/07 10:13:48;;;;;;;4.55;2.38;;;5.70;49.40;;;;;;5026479;28;81417;-69
2021/01/07 10:16:14;;;;;;;5.63;2.17;;;5.80;49.40;;;;;;5026591;28;81842;-68
2021/01/07 10:18:41;;;;;;;7.28;2.38;;;5.70;49.50;;;;;;5026946;28;81008;-69
2021/01/07 10:21:09;;;;;;;7.88;2.20;;;5.80;49.90;;;;;;5026586;28;81020;-69
2021/01/07 10:23:39;;;;;;;5.50;2.17;;;5.80;50.20;;;;;;5026777;28;80773;-71
2021/01/07 10:26:05;;;;;;;8.05;2.15;;;5.70;50.80;;;;;;5026841;28;83695;-70
2021/01/07 10:28:31;;;;;;;4.75;2.35;;;5.80;51.50;;;;;;5026643;28;82720;-70
2021/01/07 10:30:56;;;;;;;5.07;2.25;;;5.80;51.90;;;;;;5026091;28;82541;-69
2021/01/07 10:33:22;;;;;;;4.57;1.73;;;5.80;52.30;;;;;;5026741;28;80016;-70
2021/01/07 10:35:49;;;;;;;7.85;3.10;;;5.80;52.70;;;;;;5026519;28;80757;-68
2021/01/07 10:38:23;;;;;;;8.07;3.85;;;5.80;53.50;;;;;;5026844;28;81870;-69
2021/01/07 10:40:51;;;;;;;8.50;3.92;;;5.80;54.10;;;;;;5028410;28;79722;-69
2021/01/07 10:43:23;;;;;;;19.70;10.15;;;5.80;54.50;;;;;;5026380;28;80763;-69
2021/01/07 10:45:51;;;;;;;5.40;2.20;;;5.70;54.90;;;;;;5023822;28;85758;-70
2021/01/07 10:48:23;;;;;;;5.38;2.03;;;5.70;55.00;;;;;;5027366;28;85094;-79
2021/01/07 10:50:50;;;;;;;4.45;2.33;;;5.60;55.10;;;;;;5029814;28;81249;-80
2021/01/07 10:53:47;;;;;;;5.57;2.42;;;5.60;55.40;;;;;;5027889;28;81105;-77
2021/01/07 10:56:25;;;;;;;7.85;2.30;;;5.50;55.80;;;;;;5027986;28;79868;-76
2021/01/07 10:59:08;;;;;;;5.78;2.80;;;5.50;56.00;;;;;;5026624;28;80258;-79
2021/01/07 11:01:47;;;;;;;8.63;2.63;;;5.50;56.40;;;;;;5028363;28;81205;-74
2021/01/07 11:04:31;;;;;;;5.65;2.58;;;5.60;56.00;;;;;;5028035;28;80448;-79
2021/01/07 11:07:05;;;;;;;15.45;6.40;;;5.50;56.10;;;;;;5026176;28;81194;-75
2021/01/07 11:09:36;;;;;;;5.03;1.67;;;5.40;56.30;;;;;;5026480;28;80391;-74
2021/01/07 11:12:07;;;;;;;4.28;1.90;;;5.50;56.20;;;;;;5027666;28;80052;-79
2021/01/07 11:14:52;;;;;;;7.78;2.42;;;5.40;56.30;;;;;;5026733;28;83195;-78
2021/01/07 11:17:24;;;;;;;7.38;2.80;;;5.50;56.60;;;;;;5026312;28;82957;-76
2021/01/07 11:19:52;;;;;;;4.93;2.30;;;5.50;56.60;;;;;;5027867;28;80677;-81
2021/01/07 11:22:20;;;;;;;4.45;2.28;;;5.50;56.60;;;;;;5027369;28;80521;-67
2021/01/07 11:24:52;;;;;;;3.47;1.88;;;5.60;56.60;;;;;;5027480;28;80125;-72
2021/01/07 11:27:21;;;;;;;4.05;1.88;;;5.50;56.50;;;;;;5027132;28;80528;-71
2021/01/07 11:29:47;;;;;;;6.60;2.47;;;5.40;56.80;;;;;;5025764;28;80478;-70
2021/01/07 11:32:14;;;;;;;6.72;2.70;;;5.40;57.20;;;;;;5026197;28;80728;-71
2021/01/07 11:34:40;;;;;;;5.82;2.90;;;5.40;57.90;;;;;;5025157;28;82512;-71
2021/01/07 11:37:32;;;;;;;8.05;3.10;;;5.30;58.30;;;;;;5025464;28;81138;-72
2021/01/07 11:39:58;;;;;;;6.43;2.58;;;5.30;59.50;;;;;;5025071;28;82659;-71
2021/01/07 11:42:36;;;;;;;8.88;2.72;;;5.30;60.10;;;;;;5025558;28;83140;-71
2021/01/07 11:45:12;;;;;;;8.15;3.22;;;5.20;61.10;;;;;;5025541;28;81291;-69
2021/01/07 11:47:54;;;;;;;11.43;3.45;;;5.10;62.10;;;;;;5027220;28;79975;-70
2021/01/07 11:50:25;;;;;;;5.40;3.17;;;4.90;63.40;;;;;;5026967;28;79853;-70
2021/01/07 11:52:54;;;;;;;15.48;3.60;;;4.90;64.10;;;;;;5025213;28;80860;-69
2021/01/07 11:55:21;;;;;;;7.53;3.40;;;4.80;64.50;;;;;;5025161;28;80458;-71
2021/01/07 11:57:47;;;;;;;9.45;4.35;;;4.80;64.90;;;;;;5026687;28;80559;-71
2021/01/07 12:00:17;;;;;;;11.95;5.00;;;4.70;65.20;;;;;;5027189;28;79733;-70
2021/01/07 12:02:44;;;;;;;10.02;3.70;;;4.70;65.90;;;;;;5024872;28;81251;-70
2021/01/07 12:05:15;;;;;;;7.55;3.78;;;4.60;66.30;;;;;;5025266;28;80632;-70
2021/01/07 12:08:07;;;;;;;8.13;3.75;;;4.60;67.10;;;;;;5024627;28;82460;-71
2021/01/07 12:10:40;;;;;;;10.20;4.40;;;4.60;67.40;;;;;;5024982;28;80654;-71
2021/01/07 12:13:18;;;;;;;;;;;4.60;67.60;;;;;;5024843;28;82680;-71
2021/01/07 12:15:48;;;;;;;8.38;4.38;;;4.50;68.10;;;;;;5030080;28;79829;-70
2021/01/07 12:18:16;;;;;;;7.78;4.13;;;4.50;68.10;;;;;;5025685;28;83155;-72
2021/01/07 12:20:42;;;;;;;9.10;4.25;;;4.60;68.00;;;;;;5026653;28;80374;-71
2021/01/07 12:23:12;;;;;;;9.30;4.28;;;4.50;68.00;;;;;;5026635;28;80686;-72
2021/01/07 12:25:41;;;;;;;9.43;4.72;;;4.50;68.10;;;;;;5026817;28;80343;-71
2021/01/07 12:28:07;;;;;;;5.97;3.20;;;4.50;68.40;;;;;;5008436;28;82922;-71
2021/01/07 12:30:38;;;;;;;7.85;3.80;;;4.60;68.20;;;;;;5024906;28;80511;-70
2021/01/07 12:33:16;;;;;;;23.67;4.65;;;4.50;68.70;;;;;;5026925;28;79870;-70
2021/01/07 12:35:50;;;;;;;10.82;3.90;;;4.60;68.80;;;;;;5025191;28;80786;-71
2021/01/07 12:38:25;;;;;;;7.65;4.70;;;4.70;68.90;;;;;;5026637;28;81266;-70
2021/01/07 12:41:01;;;;;;;8.88;4.00;;;4.80;68.90;;;;;;5026752;28;80560;-70
2021/01/07 12:43:33;;;;;;;8.52;3.97;;;4.90;68.40;;;;;;5024551;28;80799;-70
2021/01/07 12:46:02;;;;;;;12.20;4.63;;;4.80;68.60;;;;;;5024948;28;80813;-70
2021/01/07 12:48:31;;;;;;;9.35;4.50;;;4.90;68.40;;;;;;5024516;28;80732;-70
2021/01/07 12:50:58;;;;;;;9.93;4.32;;;4.80;68.50;;;;;;5027659;28;82535;-70
2021/01/07 12:53:24;;;;;;;6.10;3.40;;;4.80;68.60;;;;;;5028288;28;81972;-70
2021/01/07 12:55:51;;;;;;;6.90;3.65;;;4.70;68.80;;;;;;5028360;28;80193;-70
2021/01/07 12:58:24;;;;;;;10.70;3.72;;;4.80;69.00;;;;;;5030152;28;80829;-70
2021/01/07 13:01:17;;;;;;;9.90;5.47;;;4.70;69.20;;;;;;5028396;28;80958;-71
2021/01/07 13:03:58;;;;;;;7.28;3.65;;;4.80;69.10;;;;;;5028562;28;80978;-71
2021/01/07 13:06:34;;;;;;;9.48;3.85;;;4.80;69.20;;;;;;5028451;28;80658;-70
2021/01/07 13:09:03;;;;;;;8.15;3.60;;;4.70;69.20;;;;;;5028350;28;80791;-72